Time;durP1;ratioP1;P1;durP2;ratioP2;P2;SDS_P1;SDS_P2;PMS_P1;PMS_P2;Temp;Humidity;BMP_temperature;BMP_pressure;BME280_temperature;BME280_humidity;BME280_pressure;Samples;Min_cycle;Max_cycle;Signal;HPM_P1;HPM_P2
2022/04/13 00:00:16;;;;;;;3.50;2.70;;;14.20;99.90;;;;;;4887989;29;20633;-77
2022/04/13 00:02:43;;;;;;;3.53;2.73;;;14.10;99.90;;;;;;4894105;29;20200;-72
2022/04/13 00:05:11;;;;;;;6.23;2.90;;;14.00;99.90;;;;;;4901147;29;20212;-73
2022/04/13 00:07:37;;;;;;;5.70;2.60;;;13.80;99.90;;;;;;4899310;29;20208;-72
2022/04/13 00:10:05;;;;;;;4.03;2.40;;;13.80;99.90;;;;;;4897221;29;20228;-79
2022/04/13 00:12:32;;;;;;;4.03;2.47;;;13.80;99.90;;;;;;4893813;29;20669;-77
2022/04/13 00:14:59;;;;;;;3.33;2.30;;;13.80;99.90;;;;;;4898711;29;20216;-73
2022/04/13 00:17:26;;;;;;;4.60;2.63;;;13.70;99.90;;;;;;4895729;29;20196;-72
2022/04/13 00:19:52;;;;;;;3.67;2.33;;;13.80;99.90;;;;;;4889990;29;20529;-75
2022/04/13 00:22:19;;;;;;;4.00;2.63;;;13.80;99.90;;;;;;4892317;29;20199;-74
2022/04/13 00:24:46;;;;;;;2.77;2.40;;;13.70;99.90;;;;;;4894010;29;20206;-72
2022/04/13 00:27:12;;;;;;;3.27;2.60;;;13.50;99.90;;;;;;4899375;29;20420;-72
2022/04/13 00:29:39;;;;;;;4.03;2.50;;;13.60;99.90;;;;;;4893272;29;20219;-78
2022/04/13 00:32:06;;;;;;;5.53;2.67;;;13.60;99.90;;;;;;4896180;29;20233;-73
2022/04/13 00:34:34;;;;;;;3.73;2.80;;;13.50;99.90;;;;;;4896191;29;20807;-74
2022/04/13 00:37:00;;;;;;;5.53;2.50;;;13.40;99.90;;;;;;4899844;29;20198;-74
2022/04/13 00:39:27;;;;;;;5.03;2.53;;;13.30;99.90;;;;;;4896739;29;20223;-75
2022/04/13 00:42:05;;;;;;;4.30;2.50;;;13.60;99.90;;;;;;4901972;29;20245;-78
2022/04/13 00:44:32;;;;;;;3.40;2.20;;;13.50;99.90;;;;;;4899215;29;20206;-74
2022/04/13 00:47:07;;;;;;;3.50;2.37;;;13.40;99.90;;;;;;4910232;29;20197;-77
2022/04/13 00:49:35;;;;;;;3.30;2.50;;;13.40;99.90;;;;;;4895338;29;20234;-77
2022/04/13 00:52:04;;;;;;;2.60;2.00;;;13.20;99.90;;;;;;4894686;29;20207;-73
2022/04/13 00:54:31;;;;;;;4.23;2.60;;;13.10;99.90;;;;;;4897372;29;20234;-75
2022/04/13 00:57:06;;;;;;;4.23;2.30;;;13.00;99.90;;;;;;4901065;29;20196;-75
2022/04/13 00:59:36;;;;;;;4.67;2.30;;;13.00;99.90;;;;;;4903983;29;20218;-74
2022/04/13 01:02:06;;;;;;;2.87;2.40;;;13.00;99.90;;;;;;4897612;29;20200;-75
2022/04/13 01:04:35;;;;;;;3.57;2.30;;;13.00;99.90;;;;;;4900336;29;20210;-75
2022/04/13 01:07:06;;;;;;;3.37;2.20;;;13.00;99.90;;;;;;4901179;29;20689;-73
2022/04/13 01:09:34;;;;;;;4.00;2.67;;;13.00;99.90;;;;;;4901384;29;20764;-72
2022/04/13 01:12:01;;;;;;;4.00;2.60;;;13.10;99.90;;;;;;4909967;29;20207;-73
2022/04/13 01:14:28;;;;;;;4.50;2.73;;;13.20;99.90;;;;;;4900146;29;20894;-73
2022/04/13 01:16:55;;;;;;;3.57;2.63;;;13.30;99.90;;;;;;4896072;29;20200;-73
2022/04/13 01:19:22;;;;;;;3.50;2.20;;;13.20;99.90;;;;;;4899512;29;20634;-74
2022/04/13 01:21:58;;;;;;;5.27;2.43;;;13.10;99.90;;;;;;4900454;29;20195;-73
2022/04/13 01:24:25;;;;;;;4.00;2.60;;;13.10;99.90;;;;;;4890715;29;20659;-73
2022/04/13 01:26:52;;;;;;;3.53;2.40;;;13.10;99.90;;;;;;4894444;29;20214;-76
2022/04/13 01:29:19;;;;;;;4.60;2.77;;;13.10;99.90;;;;;;4895084;29;20729;-72
2022/04/13 01:31:45;;;;;;;4.70;2.63;;;13.20;99.90;;;;;;4896163;29;20208;-71
2022/04/13 01:34:13;;;;;;;3.43;2.63;;;13.20;99.90;;;;;;4910948;29;20243;-71
2022/04/13 01:36:40;;;;;;;6.20;2.43;;;13.10;99.90;;;;;;4892593;29;20201;-73
2022/04/13 01:39:07;;;;;;;3.40;2.30;;;13.00;99.90;;;;;;4897518;29;20306;-73
2022/04/13 01:41:34;;;;;;;4.53;2.40;;;12.90;99.90;;;;;;4898515;29;20209;-78
2022/04/13 01:44:01;;;;;;;4.60;2.30;;;12.80;99.90;;;;;;4887475;29;20264;-74
2022/04/13 01:46:27;;;;;;;3.53;2.50;;;12.70;99.90;;;;;;4895180;29;20211;-77
2022/04/13 01:48:54;;;;;;;3.17;2.40;;;12.90;99.90;;;;;;4895687;29;20274;-73
2022/04/13 01:51:21;;;;;;;4.07;2.50;;;12.80;99.90;;;;;;4896956;29;20681;-73
2022/04/13 01:53:48;;;;;;;4.37;2.50;;;12.80;99.90;;;;;;4894491;29;20740;-78
2022/04/13 01:56:15;;;;;;;4.27;2.43;;;12.50;99.90;;;;;;4892498;29;20212;-77
2022/04/13 01:58:43;;;;;;;3.63;2.33;;;12.30;99.90;;;;;;4896281;29;20246;-76
2022/04/13 02:01:10;;;;;;;4.03;2.67;;;12.20;99.90;;;;;;4896778;29;20710;-76
2022/04/13 02:03:37;;;;;;;3.33;2.43;;;12.20;99.90;;;;;;4896453;29;20210;-73
2022/04/13 02:06:04;;;;;;;2.63;2.37;;;12.10;99.90;;;;;;4900048;29;20666;-78
2022/04/13 02:08:31;;;;;;;4.50;2.40;;;12.10;99.90;;;;;;4905519;29;20212;-76
2022/04/13 02:10:57;;;;;;;3.30;2.40;;;12.10;99.90;;;;;;4901266;29;20231;-80
2022/04/13 02:13:24;;;;;;;7.97;2.70;;;12.10;99.90;;;;;;4905180;29;20234;-77
2022/04/13 02:15:51;;;;;;;5.30;2.70;;;12.10;99.90;;;;;;4902897;29;20251;-73
2022/04/13 02:18:18;;;;;;;3.47;2.63;;;12.40;99.90;;;;;;4902917;29;20211;-75
2022/04/13 02:20:44;;;;;;;5.30;2.60;;;12.60;99.90;;;;;;4902623;29;20209;-78
2022/04/13 02:23:11;;;;;;;4.70;2.77;;;12.50;99.90;;;;;;4903780;29;20218;-80
2022/04/13 02:25:38;;;;;;;3.83;2.70;;;12.40;99.90;;;;;;4902174;29;20207;-74
2022/04/13 02:28:06;;;;;;;4.20;2.70;;;12.60;99.90;;;;;;4909744;29;20204;-75
2022/04/13 02:30:33;;;;;;;4.07;2.60;;;12.70;99.90;;;;;;4903092;29;20211;-76
2022/04/13 02:33:01;;;;;;;4.17;2.70;;;12.50;99.90;;;;;;4902870;29;20205;-74
2022/04/13 02:35:28;;;;;;;3.40;2.60;;;12.50;99.90;;;;;;4901389;29;20223;-76
2022/04/13 02:37:55;;;;;;;3.93;2.70;;;12.30;99.90;;;;;;4905165;29;20200;-82
2022/04/13 02:40:22;;;;;;;3.63;2.70;;;12.20;99.90;;;;;;4904096;29;20246;-76
2022/04/13 02:42:49;;;;;;;3.90;2.70;;;12.10;99.90;;;;;;4898906;29;20204;-78
2022/04/13 02:45:15;;;;;;;5.27;2.67;;;12.20;99.90;;;;;;4903912;29;20216;-76
2022/04/13 02:47:42;;;;;;;7.00;3.00;;;12.20;99.90;;;;;;4900978;29;20230;-77
2022/04/13 02:50:09;;;;;;;4.10;2.77;;;12.00;99.90;;;;;;4928825;29;20224;-77
2022/04/13 02:52:36;;;;;;;3.87;2.77;;;11.80;99.90;;;;;;4914093;29;20257;-78
2022/04/13 02:55:03;;;;;;;5.30;2.77;;;11.70;99.90;;;;;;4902444;29;20224;-82
2022/04/13 02:57:30;;;;;;;3.30;2.63;;;11.60;99.90;;;;;;4905273;29;20193;-79
2022/04/13 02:59:56;;;;;;;3.50;2.70;;;11.50;99.90;;;;;;4893745;29;20227;-84
2022/04/13 03:02:23;;;;;;;5.67;3.20;;;11.40;99.90;;;;;;4895464;29;20690;-81
2022/04/13 03:04:50;;;;;;;7.03;3.43;;;11.40;99.90;;;;;;4898066;29;20198;-80
2022/04/13 03:07:18;;;;;;;4.43;3.10;;;11.40;99.90;;;;;;4894455;29;20479;-80
2022/04/13 03:09:45;;;;;;;5.40;3.87;;;11.30;99.90;;;;;;4891027;29;20223;-80
2022/04/13 03:12:12;;;;;;;6.93;4.00;;;11.30;99.90;;;;;;4894901;29;20225;-80
2022/04/13 03:14:40;;;;;;;6.90;3.70;;;11.30;99.90;;;;;;4891901;29;20633;-81
2022/04/13 03:17:07;;;;;;;6.27;3.70;;;11.40;99.90;;;;;;4894280;29;20200;-79
2022/04/13 03:19:34;;;;;;;6.33;3.90;;;11.30;99.90;;;;;;4894527;29;20709;-82
2022/04/13 03:22:01;;;;;;;6.70;3.63;;;11.20;99.90;;;;;;4894698;29;20210;-79
2022/04/13 03:24:28;;;;;;;6.73;3.53;;;11.40;99.90;;;;;;4895450;29;20198;-81
2022/04/13 03:26:55;;;;;;;5.17;3.50;;;11.40;99.90;;;;;;4894831;29;20213;-86
2022/04/13 03:29:22;;;;;;;5.40;3.70;;;11.40;99.90;;;;;;4900327;29;20833;-79
2022/04/13 03:31:49;;;;;;;4.87;3.63;;;11.30;99.90;;;;;;4897187;29;20661;-82
2022/04/13 03:34:20;;;;;;;7.73;3.60;;;11.30;99.90;;;;;;4894617;29;20213;-81
2022/04/13 03:36:47;;;;;;;6.47;3.87;;;11.30;99.90;;;;;;4892025;29;20204;-82
2022/04/13 03:39:14;;;;;;;6.83;3.73;;;11.40;99.90;;;;;;4907070;29;20221;-79
2022/04/13 03:41:41;;;;;;;7.93;3.90;;;11.50;99.90;;;;;;4894139;29;20198;-88
2022/04/13 03:44:08;;;;;;;5.93;3.97;;;11.60;99.90;;;;;;4891101;29;20234;-82
2022/04/13 03:46:35;;;;;;;5.70;4.03;;;11.60;99.90;;;;;;4894954;29;20211;-82
2022/04/13 03:49:02;;;;;;;5.83;3.77;;;11.70;99.90;;;;;;4890330;29;20222;-82
2022/04/13 03:51:29;;;;;;;7.90;3.93;;;11.60;99.90;;;;;;4894626;29;20198;-82
2022/04/13 03:53:55;;;;;;;6.57;3.90;;;11.60;99.90;;;;;;4892078;29;20789;-80
2022/04/13 03:56:22;;;;;;;4.77;3.93;;;11.50;99.90;;;;;;4895004;29;20225;-82
2022/04/13 03:58:48;;;;;;;7.40;3.77;;;11.40;99.90;;;;;;4898263;29;20560;-83
2022/04/13 04:01:15;;;;;;;5.83;3.67;;;11.40;99.90;;;;;;4895461;29;20215;-81
2022/04/13 04:03:42;;;;;;;6.30;3.80;;;11.40;99.90;;;;;;4898324;29;20196;-82
2022/04/13 04:06:08;;;;;;;5.83;4.00;;;11.40;99.90;;;;;;4931042;29;20210;-82
2022/04/13 04:08:35;;;;;;;6.30;3.90;;;11.50;99.90;;;;;;4896408;29;20224;-81
2022/04/13 04:11:02;;;;;;;5.67;3.80;;;11.50;99.90;;;;;;4898866;29;20208;-81
2022/04/13 04:13:29;;;;;;;8.73;3.87;;;11.50;99.90;;;;;;4896401;29;20214;-81
2022/04/13 04:15:55;;;;;;;6.70;4.10;;;11.40;99.90;;;;;;4898243;29;20229;-77
2022/04/13 04:18:22;;;;;;;6.37;3.40;;;11.20;99.90;;;;;;4897422;29;20292;-75
2022/04/13 04:20:49;;;;;;;6.33;3.70;;;10.80;99.90;;;;;;4893189;29;20626;-74
2022/04/13 04:23:16;;;;;;;4.97;3.60;;;10.70;99.90;;;;;;4897279;29;20210;-74
2022/04/13 04:25:43;;;;;;;4.63;3.53;;;10.50;99.90;;;;;;4897441;29;20205;-73
2022/04/13 04:28:10;;;;;;;5.70;3.40;;;10.40;99.90;;;;;;4895983;29;20208;-77
2022/04/13 04:30:38;;;;;;;4.73;3.77;;;10.50;99.90;;;;;;4896642;29;20216;-73
2022/04/13 04:33:06;;;;;;;9.93;3.93;;;10.70;99.90;;;;;;4895473;29;20213;-74
2022/04/13 04:35:33;;;;;;;5.20;3.70;;;10.70;99.90;;;;;;4895378;29;20216;-76
2022/04/13 04:38:00;;;;;;;5.13;3.67;;;10.70;99.90;;;;;;4893771;29;20201;-73
2022/04/13 04:40:27;;;;;;;5.53;4.10;;;10.60;99.90;;;;;;4898347;29;20644;-79
2022/04/13 04:42:54;;;;;;;6.27;4.10;;;10.50;99.90;;;;;;4899404;29;20549;-74
2022/04/13 04:45:22;;;;;;;7.00;4.30;;;10.40;99.90;;;;;;4896159;29;20201;-73
2022/04/13 04:47:50;;;;;;;5.70;4.17;;;10.50;99.90;;;;;;4890924;29;20208;-78
2022/04/13 04:50:18;;;;;;;5.03;3.73;;;10.60;99.90;;;;;;4896369;29;20299;-74
2022/04/13 04:52:47;;;;;;;5.13;4.07;;;10.40;99.90;;;;;;4894539;29;20211;-71
2022/04/13 04:55:19;;;;;;;10.00;4.63;;;10.30;99.90;;;;;;4896607;29;20240;-71
2022/04/13 04:57:46;;;;;;;7.27;4.37;;;10.20;99.90;;;;;;4913956;29;20200;-71
2022/04/13 05:00:19;;;;;;;10.63;4.27;;;10.20;99.90;;;;;;4895183;29;20228;-72
2022/04/13 05:02:47;;;;;;;7.13;4.37;;;10.20;99.90;;;;;;4896945;29;20205;-75
2022/04/13 05:05:16;;;;;;;6.90;3.93;;;10.30;99.90;;;;;;4892492;29;20208;-73
2022/04/13 05:07:42;;;;;;;7.30;3.80;;;10.30;99.90;;;;;;4895846;29;20206;-72
2022/04/13 05:10:10;;;;;;;8.00;4.60;;;10.20;99.90;;;;;;4895686;29;20729;-72
2022/04/13 05:12:49;;;;;;;11.43;4.43;;;10.20;99.90;;;;;;4891631;29;20196;-73
2022/04/13 05:15:16;;;;;;;9.23;4.00;;;10.20;99.90;;;;;;4897633;29;20259;-75
2022/04/13 05:17:43;;;;;;;8.80;4.63;;;10.40;99.90;;;;;;4895629;29;20197;-73
2022/04/13 05:20:11;;;;;;;6.10;4.40;;;10.50;99.90;;;;;;4895313;29;20223;-77
2022/04/13 05:22:38;;;;;;;7.37;4.20;;;10.50;99.90;;;;;;4895797;29;20196;-72
2022/04/13 05:25:13;;;;;;;5.67;3.97;;;10.40;99.90;;;;;;4897910;29;20206;-71
2022/04/13 05:27:40;;;;;;;4.50;3.67;;;10.50;99.90;;;;;;4893639;29;20641;-73
2022/04/13 05:30:09;;;;;;;8.33;4.67;;;10.50;99.90;;;;;;4893638;29;20228;-72
2022/04/13 05:32:57;;;;;;;7.37;4.60;;;10.70;99.90;;;;;;4890366;29;20596;-75
2022/04/13 05:35:26;;;;;;;5.37;3.50;;;10.70;99.90;;;;;;4893339;29;20212;-72
2022/04/13 05:37:53;;;;;;;9.33;4.23;;;10.90;99.90;;;;;;4885197;29;20208;-73
2022/04/13 05:40:22;;;;;;;5.60;4.10;;;11.00;99.90;;;;;;4891222;29;20224;-71
2022/04/13 05:42:50;;;;;;;6.37;4.27;;;11.00;99.90;;;;;;4894794;29;20259;-74
2022/04/13 05:45:17;;;;;;;8.03;4.60;;;10.90;99.90;;;;;;4891890;29;20216;-79
2022/04/13 05:47:44;;;;;;;6.57;4.40;;;11.00;99.90;;;;;;4904083;29;20215;-70
2022/04/13 05:50:12;;;;;;;6.20;4.60;;;11.00;99.90;;;;;;4892168;29;20232;-76
2022/04/13 05:52:40;;;;;;;9.57;5.10;;;11.20;99.90;;;;;;4892792;29;20773;-76
2022/04/13 05:55:08;;;;;;;7.73;4.83;;;11.30;99.90;;;;;;4890840;29;20220;-81
2022/04/13 05:57:34;;;;;;;10.67;4.87;;;11.40;99.90;;;;;;4891557;29;20207;-78
2022/04/13 06:00:02;;;;;;;8.37;4.77;;;11.60;99.90;;;;;;4890421;29;20309;-80
2022/04/13 06:02:29;;;;;;;10.60;4.87;;;11.70;99.90;;;;;;4886007;29;20418;-80
2022/04/13 06:04:56;;;;;;;9.37;5.10;;;11.90;99.90;;;;;;4892299;29;20205;-82
2022/04/13 06:07:22;;;;;;;8.93;5.20;;;12.00;99.90;;;;;;4893768;29;20256;-78
2022/04/13 06:09:49;;;;;;;8.20;5.47;;;12.10;99.90;;;;;;4887002;29;21453;-81
2022/04/13 06:12:23;;;;;;;7.73;5.17;;;12.30;99.90;;;;;;4896863;29;20218;-78
2022/04/13 06:14:50;;;;;;;9.73;5.80;;;12.40;99.90;;;;;;4896023;29;20207;-79
2022/04/13 06:17:17;;;;;;;8.07;5.30;;;12.50;99.90;;;;;;4897278;29;20215;-76
2022/04/13 06:19:43;;;;;;;12.13;5.30;;;12.60;99.90;;;;;;4895072;29;20212;-77
2022/04/13 06:22:10;;;;;;;10.03;5.30;;;12.80;99.90;;;;;;4894800;29;20257;-72
2022/04/13 06:24:37;;;;;;;7.30;5.17;;;12.90;99.90;;;;;;4895567;29;20657;-73
2022/04/13 06:27:03;;;;;;;11.53;5.23;;;13.10;99.90;;;;;;4894384;29;20819;-73
2022/04/13 06:29:30;;;;;;;9.50;5.27;;;13.10;99.90;;;;;;4912716;29;20230;-76
2022/04/13 06:31:57;;;;;;;10.30;5.87;;;13.10;99.90;;;;;;4910457;29;20205;-74
2022/04/13 06:34:23;;;;;;;9.63;4.83;;;13.30;99.90;;;;;;4896397;29;20608;-74
2022/04/13 06:36:50;;;;;;;10.40;6.00;;;13.30;99.90;;;;;;4904174;29;20323;-72
2022/04/13 06:39:17;;;;;;;11.67;5.80;;;13.30;99.90;;;;;;4893345;29;20225;-76
2022/04/13 06:41:43;;;;;;;10.90;5.20;;;13.30;99.90;;;;;;4894293;29;20200;-72
2022/04/13 06:44:10;;;;;;;9.57;5.93;;;13.30;99.90;;;;;;4895793;29;20244;-73
2022/04/13 06:46:37;;;;;;;9.20;5.53;;;13.40;99.90;;;;;;4896293;29;20207;-72
2022/04/13 06:49:04;;;;;;;6.90;4.93;;;13.60;99.90;;;;;;4893222;29;20301;-72
2022/04/13 06:51:31;;;;;;;11.20;5.77;;;13.80;99.90;;;;;;4894455;29;20656;-72
2022/04/13 06:53:57;;;;;;;7.53;5.43;;;14.00;99.90;;;;;;4894528;29;20587;-73
2022/04/13 06:56:24;;;;;;;11.00;5.93;;;14.10;99.90;;;;;;4895494;29;20220;-70
2022/04/13 06:58:51;;;;;;;11.50;6.20;;;14.10;99.90;;;;;;4895639;29;20224;-74
2022/04/13 07:01:17;;;;;;;13.60;6.97;;;13.90;99.90;;;;;;4894072;29;20679;-71
2022/04/13 07:03:44;;;;;;;15.93;7.27;;;13.90;99.90;;;;;;4895851;29;20288;-70
2022/04/13 07:06:11;;;;;;;10.00;6.40;;;14.10;99.90;;;;;;4895171;29;20618;-70
2022/04/13 07:08:57;;;;;;;9.60;5.93;;;14.20;99.90;;;;;;4894420;29;20266;-72
2022/04/13 07:11:24;;;;;;;9.47;5.73;;;14.30;99.90;;;;;;4895114;29;20202;-70
2022/04/13 07:13:50;;;;;;;11.07;5.50;;;14.40;99.90;;;;;;4909270;29;20587;-72
2022/04/13 07:16:17;;;;;;;9.63;5.50;;;14.40;99.90;;;;;;4896547;29;20223;-74
2022/04/13 07:18:44;;;;;;;8.10;5.50;;;14.50;99.90;;;;;;4893372;29;20274;-72
2022/04/13 07:21:10;;;;;;;6.80;4.67;;;14.60;99.90;;;;;;4894841;29;20268;-72
2022/04/13 07:23:37;;;;;;;5.17;4.27;;;14.80;99.90;;;;;;4896630;29;20203;-72
2022/04/13 07:26:04;;;;;;;7.67;5.10;;;14.70;99.90;;;;;;4894135;29;20212;-70
2022/04/13 07:28:30;;;;;;;9.07;5.17;;;14.70;99.90;;;;;;4892952;29;20712;-71
2022/04/13 07:30:58;;;;;;;7.50;4.90;;;14.70;99.90;;;;;;4892436;29;20553;-70
2022/04/13 07:33:25;;;;;;;8.43;4.63;;;15.10;99.90;;;;;;4897075;29;20199;-71
2022/04/13 07:35:52;;;;;;;7.67;4.90;;;15.50;99.90;;;;;;4893413;29;20243;-72
2022/04/13 07:38:19;;;;;;;10.10;4.90;;;16.10;99.90;;;;;;4893626;29;20252;-72
2022/04/13 07:40:45;;;;;;;7.53;4.20;;;16.60;99.90;;;;;;4893490;29;20616;-72
2022/04/13 07:43:16;;;;;;;7.97;5.10;;;17.10;99.90;;;;;;4892282;29;20287;-74
2022/04/13 07:45:43;;;;;;;14.03;5.40;;;17.40;99.90;;;;;;4890909;29;20208;-71
2022/04/13 07:48:10;;;;;;;9.37;5.03;;;17.70;99.90;;;;;;4894238;29;20220;-73
2022/04/13 07:50:37;;;;;;;7.70;5.30;;;18.20;99.90;;;;;;4909450;29;20649;-71
2022/04/13 07:53:03;;;;;;;12.93;5.33;;;18.70;99.90;;;;;;4892676;29;20203;-71
2022/04/13 07:55:30;;;;;;;8.40;5.10;;;19.20;99.90;;;;;;4896534;29;20473;-74
2022/04/13 07:57:57;;;;;;;10.97;6.30;;;19.50;99.90;;;;;;4890386;29;20196;-74
2022/04/13 08:00:24;;;;;;;11.37;6.57;;;19.80;99.90;;;;;;4892401;29;20226;-72
2022/04/13 08:02:50;;;;;;;12.07;6.07;;;19.80;99.90;;;;;;4893237;29;20204;-75
2022/04/13 08:05:17;;;;;;;11.43;6.00;;;19.90;99.90;;;;;;4891794;29;20291;-72
2022/04/13 08:07:44;;;;;;;10.33;5.30;;;19.90;99.90;;;;;;4890226;29;20543;-72
2022/04/13 08:10:12;;;;;;;10.60;5.30;;;19.90;99.90;;;;;;4892996;29;20228;-76
2022/04/13 08:12:40;;;;;;;13.18;5.15;;;20.00;99.90;;;;;;4892699;29;20721;-72
2022/04/13 08:15:08;;;;;;;8.30;4.87;;;20.00;99.90;;;;;;4886632;29;20773;-76
2022/04/13 08:17:35;;;;;;;11.52;5.43;;;19.90;99.90;;;;;;4893986;29;20224;-76
2022/04/13 08:20:02;;;;;;;12.20;4.75;;;19.80;99.90;;;;;;4889543;29;20227;-76
2022/04/13 08:22:29;;;;;;;9.87;5.33;;;19.70;99.90;;;;;;4891093;29;20623;-72
2022/04/13 08:24:56;;;;;;;14.35;5.95;;;19.70;99.90;;;;;;4895278;29;20279;-72
2022/04/13 08:27:22;;;;;;;18.88;6.60;;;20.00;99.90;;;;;;4889458;29;20204;-73
2022/04/13 08:29:49;;;;;;;8.98;5.15;;;20.30;99.90;;;;;;4889592;29;20252;-72
2022/04/13 08:32:19;;;;;;;14.23;5.75;;;20.50;99.90;;;;;;4895105;29;20204;-71
2022/04/13 08:34:48;;;;;;;8.77;5.47;;;20.70;99.90;;;;;;4890550;29;20196;-69
2022/04/13 08:37:15;;;;;;;12.05;4.70;;;20.90;99.90;;;;;;4892623;29;20220;-71
2022/04/13 08:39:42;;;;;;;10.75;4.95;;;20.90;99.90;;;;;;4893164;29;20223;-72
2022/04/13 08:42:28;;;;;;;9.63;4.63;;;20.80;99.90;;;;;;4891480;29;20619;-71
2022/04/13 08:45:00;;;;;;;8.95;4.53;;;20.90;99.90;;;;;;4893790;29;20677;-73
2022/04/13 08:47:28;;;;;;;8.38;4.53;;;20.90;99.90;;;;;;4889809;29;20401;-73
2022/04/13 08:49:56;;;;;;;9.43;4.82;;;20.90;99.90;;;;;;4892400;29;20224;-69
2022/04/13 08:52:32;;;;;;;10.88;4.88;;;20.80;99.90;;;;;;4896813;29;20291;-70
2022/04/13 08:55:07;;;;;;;10.95;5.00;;;20.80;99.90;;;;;;4895896;29;22035;-71
2022/04/13 08:57:37;;;;;;;7.18;4.78;;;20.90;99.90;;;;;;4892450;29;20602;-71
2022/04/13 09:00:10;;;;;;;7.55;4.65;;;21.00;99.90;;;;;;4893336;29;20315;-71
2022/04/13 09:03:15;;;;;;;6.10;4.43;;;20.90;99.90;;;;;;4895494;29;20207;-71
2022/04/13 09:05:50;;;;;;;6.82;4.75;;;20.80;99.90;;;;;;4895772;29;20264;-72
2022/04/13 09:08:33;;;;;;;8.20;4.80;;;20.90;99.90;;;;;;4894295;29;20236;-71
2022/04/13 09:11:02;;;;;;;8.77;5.10;;;21.10;99.90;;;;;;4896595;29;20200;-70
2022/04/13 09:13:30;;;;;;;8.95;5.57;;;20.60;99.90;;;;;;4890310;29;20204;-73
2022/04/13 09:15:58;;;;;;;12.57;5.45;;;20.30;99.90;;;;;;4896199;29;20727;-71
2022/04/13 09:18:24;;;;;;;7.82;4.90;;;20.30;99.90;;;;;;4896972;29;20510;-70
2022/04/13 09:20:51;;;;;;;9.88;5.82;;;20.50;99.90;;;;;;4898959;29;20256;-73
2022/04/13 09:23:21;;;;;;;7.22;5.05;;;20.50;99.90;;;;;;4895240;29;20205;-71
2022/04/13 09:25:53;;;;;;;8.95;4.95;;;20.60;99.90;;;;;;4896384;29;20192;-71
2022/04/13 09:28:20;;;;;;;10.85;5.13;;;20.80;99.90;;;;;;4897550;29;20206;-73
2022/04/13 09:30:47;;;;;;;8.15;4.78;;;21.00;99.90;;;;;;4892448;29;20216;-74
2022/04/13 09:33:14;;;;;;;9.45;5.78;;;21.30;99.90;;;;;;4891583;29;20653;-73
2022/04/13 09:35:41;;;;;;;9.52;5.28;;;21.40;99.90;;;;;;4895988;29;20209;-71
2022/04/13 09:38:08;;;;;;;9.90;5.13;;;21.70;99.90;;;;;;4895090;29;20585;-71
2022/04/13 09:40:40;;;;;;;7.35;5.28;;;21.90;99.90;;;;;;4904247;29;20201;-71
2022/04/13 09:43:16;;;;;;;12.63;5.28;;;22.20;99.90;;;;;;4894287;29;20238;-73
2022/04/13 09:45:50;;;;;;;8.73;5.53;;;22.40;99.90;;;;;;4895654;29;20577;-71
2022/04/13 09:48:19;;;;;;;8.82;5.43;;;22.60;99.90;;;;;;4893139;29;20207;-73
2022/04/13 09:50:47;;;;;;;8.85;4.60;;;22.50;99.90;;;;;;4898834;29;20283;-74
2022/04/13 09:53:16;;;;;;;8.77;5.32;;;22.60;99.90;;;;;;4894839;29;20197;-71
2022/04/13 09:55:48;;;;;;;9.18;4.90;;;22.70;99.90;;;;;;4894525;29;20236;-71
2022/04/13 09:58:17;;;;;;;9.68;4.85;;;22.70;99.90;;;;;;4894741;29;20255;-72
2022/04/13 10:00:47;;;;;;;9.57;5.47;;;23.00;99.90;;;;;;4892679;29;20204;-73
2022/04/13 10:03:19;;;;;;;8.30;4.32;;;23.00;99.90;;;;;;4895220;29;20665;-74
2022/04/13 10:05:49;;;;;;;9.23;4.88;;;23.10;99.90;;;;;;4893435;29;20200;-73
2022/04/13 10:08:22;;;;;;;9.25;4.80;;;23.20;99.90;;;;;;4895031;29;20212;-73
2022/04/13 10:10:51;;;;;;;7.65;4.88;;;23.40;99.90;;;;;;4894195;29;20736;-73
2022/04/13 10:13:38;;;;;;;7.13;4.20;;;23.60;99.90;;;;;;4893922;29;20233;-76
2022/04/13 10:16:07;;;;;;;7.55;4.47;;;23.90;99.90;;;;;;4891595;29;20192;-73
2022/04/13 10:18:54;;;;;;;6.22;4.50;;;24.00;99.90;;;;;;4894622;29;20216;-74
2022/04/13 10:21:35;;;;;;;9.95;5.10;;;24.10;99.90;;;;;;4894261;29;20208;-73
2022/04/13 10:24:04;;;;;;;7.20;4.70;;;24.00;99.90;;;;;;4891896;29;20221;-71
2022/04/13 10:26:31;;;;;;;7.90;4.82;;;24.00;99.90;;;;;;4894703;29;20207;-72
2022/04/13 10:28:58;;;;;;;7.25;4.95;;;23.90;99.90;;;;;;4894253;29;20226;-73
2022/04/13 10:31:25;;;;;;;7.70;4.63;;;23.70;99.90;;;;;;4891494;29;20339;-71
2022/04/13 10:33:56;;;;;;;9.20;4.95;;;23.60;99.90;;;;;;4895307;29;20224;-70
2022/04/13 10:36:23;;;;;;;9.05;5.63;;;23.50;99.90;;;;;;4894700;29;20220;-75
2022/04/13 10:38:49;;;;;;;12.35;5.05;;;23.60;99.90;;;;;;4892546;29;20220;-71
2022/04/13 10:41:18;;;;;;;10.07;5.25;;;23.80;99.90;;;;;;4897029;29;20208;-71
2022/04/13 10:43:50;;;;;;;7.93;4.97;;;24.00;99.90;;;;;;4895116;29;20203;-72
2022/04/13 10:46:21;;;;;;;8.02;5.93;;;24.30;99.90;;;;;;4894137;29;20656;-71
2022/04/13 10:48:56;;;;;;;10.73;6.40;;;24.40;99.90;;;;;;4893363;29;20228;-72
2022/04/13 10:51:28;;;;;;;9.85;6.35;;;24.10;99.90;;;;;;4894607;29;20377;-72
2022/04/13 10:54:07;;;;;;;14.43;6.68;;;23.70;99.90;;;;;;4895628;29;20210;-72
2022/04/13 10:56:37;;;;;;;12.63;6.70;;;23.60;99.90;;;;;;4890239;29;20212;-73
2022/04/13 10:59:43;;;;;;;14.20;6.70;;;23.70;99.90;;;;;;4906659;29;20216;-70
2022/04/13 11:02:27;;;;;;;9.27;6.05;;;23.90;99.90;;;;;;4891131;29;20215;-73
2022/04/13 11:04:55;;;;;;;17.95;7.40;;;24.20;99.90;;;;;;4894546;29;20196;-72
2022/04/13 11:07:24;;;;;;;12.38;6.07;;;24.00;99.90;;;;;;4895311;29;20532;-72
2022/04/13 11:09:58;;;;;;;14.15;6.28;;;23.80;99.90;;;;;;4896177;29;20231;-72
2022/04/13 11:12:26;;;;;;;11.88;6.18;;;23.90;99.90;;;;;;4892656;29;20594;-72
2022/04/13 11:14:54;;;;;;;13.13;6.30;;;23.90;99.90;;;;;;4891710;29;20200;-71
2022/04/13 11:17:21;;;;;;;15.65;5.82;;;23.90;99.90;;;;;;4891203;29;20225;-74
2022/04/13 11:19:48;;;;;;;19.58;5.90;;;24.10;99.90;;;;;;4889385;29;20220;-70
2022/04/13 11:22:19;;;;;;;12.63;5.50;;;24.20;99.90;;;;;;4893934;29;20204;-72
2022/04/13 11:24:45;;;;;;;14.13;6.18;;;24.60;99.90;;;;;;4892595;29;20657;-71
2022/04/13 11:27:13;;;;;;;14.20;5.00;;;24.80;99.90;;;;;;4892915;29;20211;-74
2022/04/13 11:29:42;;;;;;;11.68;4.78;;;25.00;99.90;;;;;;4890614;29;20221;-71
2022/04/13 11:32:10;;;;;;;9.45;4.80;;;25.10;99.90;;;;;;4894013;29;20204;-71
2022/04/13 11:34:39;;;;;;;15.30;5.15;;;25.40;99.90;;;;;;4892303;29;20200;-71
2022/04/13 11:37:11;;;;;;;9.70;4.22;;;25.60;99.90;;;;;;4888427;29;20239;-70
2022/04/13 11:39:56;;;;;;;8.75;4.10;;;25.60;99.90;;;;;;4891010;29;20228;-72
2022/04/13 11:42:24;;;;;;;9.73;4.53;;;25.80;99.90;;;;;;4893874;29;20617;-71
2022/04/13 11:45:08;;;;;;;7.53;4.22;;;25.90;99.90;;;;;;4889587;29;20616;-73
2022/04/13 11:47:39;;;;;;;11.57;4.07;;;26.10;99.90;;;;;;4887897;29;20630;-72
2022/04/13 11:50:12;;;;;;;9.15;4.40;;;26.10;99.80;;;;;;4888275;29;20230;-70
2022/04/13 11:52:41;;;;;;;8.95;3.95;;;25.90;99.20;;;;;;4887717;29;20204;-72
2022/04/13 11:55:18;;;;;;;16.52;4.65;;;25.80;99.40;;;;;;4886669;29;20208;-70
2022/04/13 11:57:59;;;;;;;11.57;5.60;;;25.60;99.90;;;;;;4890153;29;20215;-69
2022/04/13 12:00:55;;;;;;;11.93;4.60;;;25.30;99.90;;;;;;4892530;29;20232;-70
2022/04/13 12:03:30;;;;;;;7.30;3.78;;;25.20;99.90;;;;;;4885086;29;20311;-74
2022/04/13 12:06:11;;;;;;;14.35;4.15;;;25.40;99.90;;;;;;4886441;29;20224;-75
2022/04/13 12:08:46;;;;;;;10.13;4.05;;;25.40;99.80;;;;;;4886484;29;21008;-72
2022/04/13 12:11:16;;;;;;;9.02;4.05;;;25.20;99.70;;;;;;4885442;29;20215;-70
2022/04/13 12:13:55;;;;;;;10.02;4.03;;;25.10;99.90;;;;;;4885800;29;20216;-74
2022/04/13 12:16:27;;;;;;;11.07;4.00;;;25.30;99.90;;;;;;4882121;29;20219;-76
2022/04/13 12:18:59;;;;;;;13.15;4.00;;;25.50;99.90;;;;;;4889279;29;20220;-72
2022/04/13 12:21:29;;;;;;;11.27;4.47;;;26.00;99.90;;;;;;4893007;29;20211;-73
2022/04/13 12:23:56;;;;;;;7.32;4.15;;;26.20;99.90;;;;;;4890832;29;20204;-71
2022/04/13 12:26:31;;;;;;;10.63;4.68;;;26.50;99.90;;;;;;4902846;29;20197;-75
2022/04/13 12:28:59;;;;;;;7.70;4.63;;;26.90;99.90;;;;;;4894299;29;20220;-73
2022/04/13 12:31:27;;;;;;;10.70;5.30;;;26.80;99.90;;;;;;4892829;29;20201;-74
2022/04/13 12:34:01;;;;;;;7.45;4.70;;;26.80;99.90;;;;;;4890732;29;20304;-72
2022/04/13 12:36:28;;;;;;;9.90;4.75;;;26.80;99.90;;;;;;4890853;29;20196;-70
2022/04/13 12:38:55;;;;;;;10.15;4.60;;;26.80;99.90;;;;;;4896908;29;20227;-71
2022/04/13 12:41:22;;;;;;;7.85;4.40;;;26.70;99.90;;;;;;4892635;29;20204;-70
2022/04/13 12:43:57;;;;;;;7.78;3.85;;;26.80;99.60;;;;;;4892525;29;20251;-70
2022/04/13 12:46:32;;;;;;;9.77;3.30;;;26.80;98.20;;;;;;4892530;29;20204;-74
2022/04/13 12:49:04;;;;;;;6.18;3.45;;;26.40;97.90;;;;;;4890353;29;20216;-72
2022/04/13 12:51:36;;;;;;;9.00;2.90;;;26.20;98.00;;;;;;4891143;29;20256;-72
2022/04/13 12:54:03;;;;;;;8.73;3.00;;;26.10;97.30;;;;;;4890875;29;20193;-71